createdAt,value
2023-04-11T00:01:03.642Z,8.05
2023-04-11T00:03:33.194Z,8.03
2023-04-11T00:06:01.453Z,8.00
2023-04-11T00:08:30.314Z,7.96
2023-04-11T00:11:02.895Z,7.94
2023-04-11T00:13:31.011Z,7.91
2023-04-11T00:16:05.658Z,7.89
2023-04-11T00:18:37.949Z,7.90
2023-04-11T00:21:08.838Z,7.90
2023-04-11T00:23:38.005Z,7.89
2023-04-11T00:26:06.833Z,7.86
2023-04-11T00:28:43.857Z,7.84
2023-04-11T00:31:12.550Z,7.81
2023-04-11T00:33:41.057Z,7.79
2023-04-11T00:36:10.645Z,7.78
2023-04-11T00:38:42.337Z,7.76
2023-04-11T00:41:10.954Z,7.73
2023-04-11T00:43:49.844Z,7.70
2023-04-11T00:46:18.839Z,7.68
2023-04-11T00:48:48.057Z,7.64
2023-04-11T00:51:23.984Z,7.61
2023-04-11T00:53:53.342Z,7.57
2023-04-11T00:56:22.377Z,7.52
2023-04-11T00:58:51.121Z,7.46
2023-04-11T01:01:20.117Z,7.40
2023-04-11T01:03:49.519Z,7.35
2023-04-11T01:06:18.928Z,7.32
2023-04-11T01:08:48.102Z,7.30
2023-04-11T01:11:18.254Z,7.28
2023-04-11T01:13:46.339Z,7.25
2023-04-11T01:16:15.404Z,7.23
2023-04-11T01:18:43.974Z,7.20
2023-04-11T01:21:12.077Z,7.16
2023-04-11T01:23:40.150Z,7.12
2023-04-11T01:26:08.218Z,7.07
2023-04-11T01:28:36.482Z,7.04
2023-04-11T01:31:06.134Z,7.02
2023-04-11T01:33:34.840Z,7.00
2023-04-11T01:36:03.152Z,6.99
2023-04-11T01:38:32.198Z,6.96
2023-04-11T01:41:00.586Z,6.95
2023-04-11T01:43:28.895Z,6.92
2023-04-11T01:45:57.191Z,6.90
2023-04-11T01:48:25.991Z,6.88
2023-04-11T01:50:56.315Z,6.87
2023-04-11T01:53:24.529Z,6.85
2023-04-11T01:55:53.268Z,6.84
2023-04-11T01:58:21.954Z,6.83
2023-04-11T02:00:50.062Z,6.81
2023-04-11T02:03:21.315Z,6.79
2023-04-11T02:05:56.125Z,6.76
2023-04-11T02:08:24.683Z,6.75
2023-04-11T02:10:54.234Z,6.74
2023-04-11T02:13:22.458Z,6.71
2023-04-11T02:15:51.263Z,6.69
2023-04-11T02:18:21.718Z,6.68
2023-04-11T02:20:50.419Z,6.66
2023-04-11T02:23:24.320Z,6.64
2023-04-11T02:25:52.869Z,6.64
2023-04-11T02:28:21.279Z,6.64
2023-04-11T02:30:51.168Z,6.62
2023-04-11T02:33:20.741Z,6.61
2023-04-11T02:35:49.039Z,6.60
2023-04-11T02:38:17.925Z,6.59
2023-04-11T02:40:47.440Z,6.59
2023-04-11T02:43:19.117Z,6.58
2023-04-11T02:45:47.474Z,6.58
2023-04-11T02:48:16.025Z,6.58
2023-04-11T02:50:50.604Z,6.59
2023-04-11T02:53:19.506Z,6.57
2023-04-11T02:55:49.656Z,6.54
2023-04-11T02:58:20.232Z,6.53
2023-04-11T03:00:49.678Z,6.50
2023-04-11T03:03:27.426Z,6.49
2023-04-11T03:05:57.114Z,6.46
2023-04-11T03:08:25.993Z,6.44
2023-04-11T03:10:56.885Z,6.42
2023-04-11T03:13:26.821Z,6.41
2023-04-11T03:15:55.096Z,6.38
2023-04-11T03:18:23.842Z,6.37
2023-04-11T03:20:52.578Z,6.38
2023-04-11T03:23:21.004Z,6.38
2023-04-11T03:25:51.023Z,6.38
2023-04-11T03:28:19.711Z,6.39
2023-04-11T03:30:48.907Z,6.40
2023-04-11T03:33:20.389Z,6.41
2023-04-11T03:35:48.419Z,6.42
2023-04-11T03:38:17.196Z,6.43
2023-04-11T03:40:45.677Z,6.41
2023-04-11T03:43:17.388Z,6.41
2023-04-11T03:45:46.113Z,6.42
2023-04-11T03:48:20.513Z,6.44
2023-04-11T03:50:57.097Z,6.47
2023-04-11T03:53:31.964Z,6.49
2023-04-11T03:56:05.896Z,6.52
2023-04-11T03:58:37.365Z,6.57
2023-04-11T04:01:06.823Z,6.60
2023-04-11T04:03:36.848Z,6.67
2023-04-11T04:06:05.791Z,6.75
2023-04-11T04:08:34.391Z,6.81
2023-04-11T04:11:03.984Z,6.86
2023-04-11T04:13:33.073Z,6.91
2023-04-11T04:16:12.173Z,6.96
2023-04-11T04:18:42.594Z,6.99
2023-04-11T04:21:10.952Z,7.03
2023-04-11T04:23:47.716Z,7.09
2023-04-11T04:26:25.124Z,7.14
2023-04-11T04:29:10.288Z,7.20
2023-04-11T04:31:53.043Z,7.26
2023-04-11T04:34:29.218Z,7.33
2023-04-11T04:36:59.829Z,7.38
2023-04-11T04:39:38.243Z,7.47
2023-04-11T04:42:10.116Z,7.54
2023-04-11T04:45:00.195Z,7.60
2023-04-11T04:47:33.760Z,7.66
2023-04-11T04:50:01.746Z,7.72
2023-04-11T04:52:30.802Z,7.78
2023-04-11T04:55:00.229Z,7.86
2023-04-11T04:57:29.318Z,7.92
2023-04-11T04:59:57.352Z,7.99
2023-04-11T05:02:26.803Z,8.06
2023-04-11T05:04:56.608Z,8.15
2023-04-11T05:07:26.685Z,8.23
2023-04-11T05:10:00.717Z,8.32
2023-04-11T05:12:30.389Z,8.38
2023-04-11T05:15:03.327Z,8.44
2023-04-11T05:17:32.996Z,8.50
2023-04-11T05:20:01.287Z,8.55
2023-04-11T05:22:31.851Z,8.61
2023-04-11T05:25:06.060Z,8.68
2023-04-11T05:27:34.678Z,8.74
2023-04-11T05:30:03.331Z,8.82
2023-04-11T05:32:38.291Z,8.90
2023-04-11T05:35:07.209Z,8.99
2023-04-11T05:37:45.144Z,9.08
2023-04-11T05:40:14.470Z,9.17
2023-04-11T05:42:43.221Z,9.26
2023-04-11T05:45:12.211Z,9.36
2023-04-11T05:47:41.267Z,9.44
2023-04-11T05:50:10.786Z,9.50
2023-04-11T05:52:39.411Z,9.57
2023-04-11T05:55:08.017Z,9.63
2023-04-11T05:57:41.887Z,9.70
2023-04-11T06:00:13.532Z,9.77
2023-04-11T06:03:02.192Z,9.87
2023-04-11T06:05:33.776Z,9.97
2023-04-11T06:08:03.278Z,10.07
2023-04-11T06:10:31.729Z,10.15
2023-04-11T06:12:59.929Z,10.25
2023-04-11T06:15:28.410Z,10.35
2023-04-11T06:17:56.773Z,10.43
2023-04-11T06:20:25.846Z,10.55
2023-04-11T06:22:54.064Z,10.67
2023-04-11T06:25:22.330Z,10.76
2023-04-11T06:27:50.466Z,10.85
2023-04-11T06:30:19.306Z,10.96
2023-04-11T06:32:57.181Z,11.07
2023-04-11T06:35:25.698Z,11.19
2023-04-11T06:37:53.741Z,11.33
2023-04-11T06:40:22.638Z,11.45
2023-04-11T06:42:50.973Z,11.58
2023-04-11T06:45:19.477Z,11.70
2023-04-11T06:47:50.004Z,11.82
2023-04-11T06:50:18.198Z,11.94
2023-04-11T06:52:46.780Z,12.06
2023-04-11T06:55:15.761Z,12.17
2023-04-11T06:57:43.960Z,12.25
2023-04-11T07:00:16.427Z,12.31
2023-04-11T07:02:45.870Z,12.33
2023-04-11T07:05:15.019Z,12.38
2023-04-11T07:07:43.570Z,12.43
2023-04-11T07:10:11.676Z,12.49
2023-04-11T07:12:40.259Z,12.57
2023-04-11T07:15:13.137Z,12.63
2023-04-11T07:17:45.185Z,12.67
2023-04-11T07:20:13.284Z,12.74
2023-04-11T07:22:48.612Z,12.82
2023-04-11T07:25:22.822Z,12.89
2023-04-11T07:27:51.729Z,12.94
2023-04-11T07:30:21.746Z,13.02
2023-04-11T07:33:02.347Z,13.10
2023-04-11T07:35:31.717Z,13.16
2023-04-11T07:38:02.942Z,13.22
2023-04-11T07:40:32.454Z,13.32
2023-04-11T07:43:03.062Z,13.44
2023-04-11T07:45:31.357Z,13.54
2023-04-11T07:48:00.328Z,13.60
2023-04-11T07:50:28.474Z,13.68
2023-04-11T07:52:56.866Z,13.77
2023-04-11T07:55:25.357Z,13.79
2023-04-11T07:57:53.392Z,13.81
2023-04-11T08:00:22.631Z,13.88
2023-04-11T08:02:52.595Z,13.96
2023-04-11T08:05:21.060Z,14.06
2023-04-11T08:07:51.534Z,14.15
2023-04-11T08:10:20.015Z,14.24
2023-04-11T08:12:48.531Z,14.37
2023-04-11T08:15:19.573Z,14.51
2023-04-11T08:17:49.938Z,14.61
2023-04-11T08:20:19.050Z,14.64
2023-04-11T08:22:55.041Z,14.60
2023-04-11T08:25:23.119Z,14.58
2023-04-11T08:27:52.651Z,14.59
2023-04-11T08:30:20.757Z,14.61
2023-04-11T08:32:49.614Z,14.62
2023-04-11T08:35:18.044Z,14.64
2023-04-11T08:37:46.537Z,14.71
2023-04-11T08:40:14.675Z,14.79
2023-04-11T08:42:43.864Z,14.88
2023-04-11T08:45:12.298Z,14.97
2023-04-11T08:47:41.508Z,15.08
2023-04-11T08:50:10.846Z,15.22
2023-04-11T08:52:39.184Z,15.33
2023-04-11T08:55:09.377Z,15.41
2023-04-11T08:57:38.402Z,15.61
2023-04-11T09:00:19.018Z,15.88
2023-04-11T09:02:57.534Z,16.22
2023-04-11T09:05:29.612Z,16.54
2023-04-11T09:07:59.134Z,16.77
2023-04-11T09:10:27.914Z,16.77
2023-04-11T09:13:00.946Z,16.64
2023-04-11T09:15:30.418Z,16.54
2023-04-11T09:18:00.563Z,16.58
2023-04-11T09:20:38.251Z,16.71
2023-04-11T09:23:06.829Z,17.04
2023-04-11T09:25:44.044Z,17.51
2023-04-11T09:28:12.685Z,18.12
2023-04-11T09:30:57.893Z,18.64
2023-04-11T09:33:28.620Z,19.27
2023-04-11T09:35:58.693Z,19.78
2023-04-11T09:38:31.968Z,19.97
2023-04-11T09:41:01.643Z,19.94
2023-04-11T09:43:51.564Z,19.64
2023-04-11T09:46:21.533Z,19.76
2023-04-11T09:48:50.579Z,19.96
2023-04-11T09:51:34.272Z,19.97
2023-04-11T09:54:03.919Z,19.79
2023-04-11T09:56:34.904Z,19.53
2023-04-11T09:59:05.851Z,19.32
2023-04-11T10:01:34.465Z,19.17
2023-04-11T10:04:04.564Z,19.21
2023-04-11T10:06:39.948Z,19.46
2023-04-11T10:09:11.244Z,19.56
2023-04-11T10:11:44.744Z,19.19
2023-04-11T10:14:43.624Z,18.99
2023-04-11T10:17:22.895Z,19.01
2023-04-11T10:19:56.983Z,19.14
2023-04-11T10:22:40.699Z,19.11
2023-04-11T10:25:17.857Z,19.00
2023-04-11T10:28:07.530Z,18.96
2023-04-11T10:30:41.169Z,19.10
2023-04-11T10:33:22.034Z,19.43
2023-04-11T10:35:59.268Z,19.74
2023-04-11T10:38:49.392Z,19.86
2023-04-11T10:41:33.308Z,19.97
2023-04-11T10:44:21.103Z,20.11
2023-04-11T10:46:56.405Z,20.52
2023-04-11T10:49:34.764Z,20.84
2023-04-11T10:52:23.719Z,20.83
2023-04-11T10:54:54.566Z,20.78
2023-04-11T10:57:28.702Z,20.82
2023-04-11T10:59:57.516Z,20.85
2023-04-11T11:02:26.814Z,20.52
2023-04-11T11:04:55.837Z,20.09
2023-04-11T11:07:24.439Z,19.68
2023-04-11T11:09:53.698Z,19.27
2023-04-11T11:12:21.847Z,18.83
2023-04-11T11:14:50.282Z,18.53
2023-04-11T11:17:18.351Z,18.54
2023-04-11T11:19:48.627Z,18.73
2023-04-11T11:22:17.798Z,19.00
2023-04-11T11:24:45.910Z,19.11
2023-04-11T11:27:24.210Z,19.02
2023-04-11T11:29:53.213Z,18.68
2023-04-11T11:32:28.715Z,18.41
2023-04-11T11:34:57.915Z,18.26
2023-04-11T11:37:27.252Z,18.19
2023-04-11T11:39:55.362Z,18.16
2023-04-11T11:42:24.393Z,18.18
2023-04-11T11:44:52.455Z,18.22
2023-04-11T11:47:21.003Z,18.30
2023-04-11T11:49:50.931Z,18.47
2023-04-11T11:52:34.899Z,18.57
2023-04-11T11:55:06.851Z,18.43
2023-04-11T11:57:37.030Z,18.31
2023-04-11T12:00:06.310Z,18.32
2023-04-11T12:02:40.633Z,18.41
2023-04-11T12:05:11.193Z,18.50
2023-04-11T12:07:39.658Z,18.62
2023-04-11T12:10:09.371Z,18.83
2023-04-11T12:12:42.718Z,19.01
2023-04-11T12:15:18.408Z,19.00
2023-04-11T12:17:50.487Z,18.86
2023-04-11T12:20:23.450Z,18.71
2023-04-11T12:22:54.134Z,18.63
2023-04-11T12:25:23.010Z,18.48
2023-04-11T12:27:51.222Z,18.40
2023-04-11T12:30:19.385Z,18.45
2023-04-11T12:32:51.317Z,18.53
2023-04-11T12:35:19.946Z,18.54
2023-04-11T12:37:48.870Z,18.51
2023-04-11T12:40:18.020Z,18.55
2023-04-11T12:42:56.174Z,18.58
2023-04-11T12:45:25.933Z,18.58
2023-04-11T12:47:54.904Z,18.59
2023-04-11T12:50:28.563Z,18.63
2023-04-11T12:52:57.626Z,18.68
2023-04-11T12:55:26.601Z,18.72
2023-04-11T12:57:55.669Z,18.63
2023-04-11T13:00:24.249Z,18.54
2023-04-11T13:03:12.718Z,18.58
2023-04-11T13:05:41.863Z,18.65
2023-04-11T13:08:10.506Z,18.76
2023-04-11T13:10:38.860Z,18.94
2023-04-11T13:13:17.454Z,19.11
2023-04-11T13:15:47.476Z,19.17
2023-04-11T13:18:15.837Z,19.19
2023-04-11T13:20:46.285Z,19.07
2023-04-11T13:23:16.629Z,18.90
2023-04-11T13:25:48.782Z,18.71
2023-04-11T13:28:17.983Z,18.55
2023-04-11T13:30:46.886Z,18.63
2023-04-11T13:33:16.504Z,19.08
2023-04-11T13:35:45.381Z,19.68
2023-04-11T13:38:16.881Z,20.25
2023-04-11T13:40:45.739Z,20.39
2023-04-11T13:43:14.374Z,20.45
2023-04-11T13:45:43.925Z,20.34
2023-04-11T13:48:15.555Z,20.20
2023-04-11T13:50:45.229Z,20.07
2023-04-11T13:53:13.739Z,19.89
2023-04-11T13:55:47.760Z,19.55
2023-04-11T13:58:16.321Z,19.28
2023-04-11T14:00:48.305Z,19.13
2023-04-11T14:03:18.039Z,19.06
2023-04-11T14:05:48.522Z,19.02
2023-04-11T14:08:24.748Z,19.02
2023-04-11T14:10:57.201Z,19.14
2023-04-11T14:13:27.367Z,19.24
2023-04-11T14:16:07.821Z,19.23
2023-04-11T14:18:40.518Z,19.20
2023-04-11T14:21:08.728Z,19.17
2023-04-11T14:23:37.396Z,19.02
2023-04-11T14:26:09.091Z,18.73
2023-04-11T14:28:37.749Z,18.47
2023-04-11T14:31:06.668Z,18.27
2023-04-11T14:33:41.797Z,18.05
2023-04-11T14:36:10.368Z,17.90
2023-04-11T14:38:38.519Z,17.75
2023-04-11T14:41:07.705Z,17.58
2023-04-11T14:43:35.932Z,17.42
2023-04-11T14:46:07.093Z,17.27
2023-04-11T14:48:36.255Z,17.16
2023-04-11T14:51:04.746Z,17.05
2023-04-11T14:53:33.427Z,16.85
2023-04-11T14:56:04.847Z,16.71
2023-04-11T14:58:36.618Z,16.65
2023-04-11T15:01:05.187Z,16.61
2023-04-11T15:03:34.986Z,16.55
2023-04-11T15:06:11.271Z,16.46
2023-04-11T15:08:46.573Z,16.38
2023-04-11T15:11:22.212Z,16.33
2023-04-11T15:13:57.352Z,16.30
2023-04-11T15:16:27.311Z,16.28
2023-04-11T15:18:55.640Z,16.24
2023-04-11T15:21:27.628Z,16.17
2023-04-11T15:24:07.585Z,16.09
2023-04-11T15:26:42.292Z,16.01
2023-04-11T15:29:16.047Z,15.91
2023-04-11T15:31:44.593Z,15.79
2023-04-11T15:34:14.313Z,15.69
2023-04-11T15:36:47.429Z,15.60
2023-04-11T15:39:16.160Z,15.52
2023-04-11T15:41:44.611Z,15.44
2023-04-11T15:44:12.784Z,15.35
2023-04-11T15:46:41.383Z,15.23
2023-04-11T15:49:09.612Z,15.13
2023-04-11T15:51:40.779Z,15.03
2023-04-11T15:54:08.978Z,14.97
2023-04-11T15:56:37.495Z,14.91
2023-04-11T15:59:08.114Z,14.85
2023-04-11T16:01:38.517Z,14.79
2023-04-11T16:04:09.370Z,14.74
2023-04-11T16:06:37.872Z,14.70
2023-04-11T16:09:06.115Z,14.64
2023-04-11T16:11:38.847Z,14.59
2023-04-11T16:14:07.324Z,14.53
2023-04-11T16:16:45.984Z,14.48
2023-04-11T16:19:16.558Z,14.44
2023-04-11T16:21:44.801Z,14.40
2023-04-11T16:24:14.335Z,14.36
2023-04-11T16:26:43.690Z,14.32
2023-04-11T16:29:11.894Z,14.28
2023-04-11T16:31:41.449Z,14.26
2023-04-11T16:34:09.667Z,14.21
2023-04-11T16:36:37.837Z,14.16
2023-04-11T16:39:06.553Z,14.12
2023-04-11T16:41:37.699Z,14.09
2023-04-11T16:44:06.284Z,14.06
2023-04-11T16:46:34.776Z,14.03
2023-04-11T16:49:03.620Z,14.01
2023-04-11T16:51:32.136Z,13.98
2023-04-11T16:54:00.506Z,13.96
2023-04-11T16:56:29.211Z,13.93
2023-04-11T16:58:57.705Z,13.89
2023-04-11T17:01:26.456Z,13.87
2023-04-11T17:03:56.787Z,13.86
2023-04-11T17:06:25.993Z,13.83
2023-04-11T17:08:54.602Z,13.80
2023-04-11T17:11:22.915Z,13.80
2023-04-11T17:13:51.722Z,13.78
2023-04-11T17:16:20.609Z,13.76
2023-04-11T17:18:48.934Z,13.76
2023-04-11T17:21:22.091Z,13.75
2023-04-11T17:23:50.791Z,13.73
2023-04-11T17:26:20.098Z,13.73
2023-04-11T17:28:52.006Z,13.70
2023-04-11T17:31:20.857Z,13.69
2023-04-11T17:33:50.117Z,13.67
2023-04-11T17:36:20.080Z,13.65
2023-04-11T17:38:49.298Z,13.63
2023-04-11T17:41:17.712Z,13.63
2023-04-11T17:43:46.273Z,13.62
2023-04-11T17:46:14.643Z,13.61
2023-04-11T17:48:43.260Z,13.59
2023-04-11T17:51:11.545Z,13.59
2023-04-11T17:53:44.333Z,13.57
2023-04-11T17:56:14.547Z,13.53
2023-04-11T17:58:44.910Z,13.49
2023-04-11T18:01:14.064Z,13.48
2023-04-11T18:03:44.040Z,13.48
2023-04-11T18:06:12.656Z,13.47
2023-04-11T18:08:50.465Z,13.45
2023-04-11T18:11:21.171Z,13.42
2023-04-11T18:13:53.989Z,13.39
2023-04-11T18:16:26.275Z,13.37
2023-04-11T18:18:54.527Z,13.33
2023-04-11T18:21:22.706Z,13.29
2023-04-11T18:23:51.482Z,13.26
2023-04-11T18:26:19.790Z,13.23
2023-04-11T18:28:53.251Z,13.18
2023-04-11T18:31:22.318Z,13.15
2023-04-11T18:33:50.472Z,13.13
2023-04-11T18:36:19.118Z,13.11
2023-04-11T18:38:49.394Z,13.09
2023-04-11T18:41:18.540Z,13.07
2023-04-11T18:43:48.032Z,13.05
2023-04-11T18:46:16.693Z,13.05
2023-04-11T18:48:45.624Z,13.04
2023-04-11T18:51:13.859Z,13.02
2023-04-11T18:53:42.090Z,13.00
2023-04-11T18:56:11.878Z,13.01
2023-04-11T18:58:45.725Z,13.01
2023-04-11T19:01:17.021Z,13.00
2023-04-11T19:03:46.904Z,13.01
2023-04-11T19:06:15.295Z,13.00
2023-04-11T19:08:45.035Z,12.98
2023-04-11T19:11:14.119Z,12.96
2023-04-11T19:13:42.361Z,12.94
2023-04-11T19:16:13.637Z,12.92
2023-04-11T19:18:42.107Z,12.90
2023-04-11T19:21:10.362Z,12.88
2023-04-11T19:23:39.845Z,12.84
2023-04-11T19:26:08.825Z,12.83
2023-04-11T19:28:37.700Z,12.80
2023-04-11T19:31:08.700Z,12.78
2023-04-11T19:33:39.159Z,12.77
2023-04-11T19:36:08.234Z,12.75
2023-04-11T19:38:36.875Z,12.73
2023-04-11T19:41:11.722Z,12.71
2023-04-11T19:43:40.838Z,12.68
2023-04-11T19:46:11.573Z,12.63
2023-04-11T19:48:40.882Z,12.62
2023-04-11T19:51:10.584Z,12.63
2023-04-11T19:53:38.991Z,12.64
2023-04-11T19:56:12.349Z,12.63
2023-04-11T19:58:41.738Z,12.62
2023-04-11T20:01:10.172Z,12.63
2023-04-11T20:03:40.936Z,12.62
2023-04-11T20:06:12.488Z,12.63
2023-04-11T20:08:41.067Z,12.63
2023-04-11T20:11:13.827Z,12.62
2023-04-11T20:13:42.280Z,12.63
2023-04-11T20:16:11.822Z,12.64
2023-04-11T20:18:40.986Z,12.65
2023-04-11T20:21:09.603Z,12.64
2023-04-11T20:23:42.445Z,12.64
2023-04-11T20:26:10.650Z,12.63
2023-04-11T20:28:39.652Z,12.62
2023-04-11T20:31:08.547Z,12.62
2023-04-11T20:33:37.125Z,12.61
2023-04-11T20:36:07.999Z,12.59
2023-04-11T20:38:37.071Z,12.57
2023-04-11T20:41:06.368Z,12.55
2023-04-11T20:43:41.810Z,12.53
2023-04-11T20:46:13.613Z,12.51
2023-04-11T20:48:42.776Z,12.50
2023-04-11T20:51:11.452Z,12.48
2023-04-11T20:53:40.609Z,12.49
2023-04-11T20:56:08.923Z,12.50
2023-04-11T20:58:37.747Z,12.49
2023-04-11T21:01:06.632Z,12.47
2023-04-11T21:03:38.685Z,12.46
2023-04-11T21:06:07.734Z,12.44
2023-04-11T21:08:38.310Z,12.42
2023-04-11T21:11:07.878Z,12.37
2023-04-11T21:13:36.121Z,12.32
2023-04-11T21:16:04.733Z,12.28
2023-04-11T21:18:36.188Z,12.21
2023-04-11T21:21:08.107Z,12.12
2023-04-11T21:23:42.591Z,12.01
2023-04-11T21:26:11.817Z,11.90
2023-04-11T21:28:44.199Z,11.80
2023-04-11T21:31:32.353Z,11.69
2023-04-11T21:34:00.992Z,11.59
2023-04-11T21:36:29.733Z,11.51
2023-04-11T21:38:58.913Z,11.44
2023-04-11T21:41:28.975Z,11.38
2023-04-11T21:43:57.568Z,11.30
2023-04-11T21:46:29.518Z,11.24
2023-04-11T21:48:58.343Z,11.20
2023-04-11T21:51:28.282Z,11.16
2023-04-11T21:53:57.504Z,11.11
2023-04-11T21:56:26.122Z,11.09
2023-04-11T21:58:57.007Z,11.07
2023-04-11T22:01:25.684Z,11.05
2023-04-11T22:03:54.351Z,11.06
2023-04-11T22:06:25.383Z,11.04
2023-04-11T22:08:53.790Z,11.04
2023-04-11T22:11:21.930Z,11.03
2023-04-11T22:13:52.914Z,11.00
2023-04-11T22:16:26.534Z,10.96
2023-04-11T22:18:54.853Z,10.93
2023-04-11T22:21:31.993Z,10.90
2023-04-11T22:24:02.546Z,10.88
2023-04-11T22:26:34.193Z,10.84
2023-04-11T22:31:59.633Z,10.79
2023-04-11T22:34:28.264Z,10.77
2023-04-11T22:37:00.194Z,10.76
2023-04-11T22:39:28.672Z,10.76
2023-04-11T22:41:56.897Z,10.76
2023-04-11T22:44:25.574Z,10.76
2023-04-11T22:47:00.931Z,10.75
2023-04-11T22:49:29.511Z,10.74
2023-04-11T22:51:59.475Z,10.72
2023-04-11T22:54:29.605Z,10.72
2023-04-11T22:56:58.813Z,10.71
2023-04-11T22:59:33.824Z,10.69
2023-04-11T23:02:02.159Z,10.67
2023-04-11T23:04:31.764Z,10.65
2023-04-11T23:07:05.092Z,10.62
2023-04-11T23:09:33.612Z,10.61
2023-04-11T23:12:02.880Z,10.61
2023-04-11T23:14:32.485Z,10.61
2023-04-11T23:17:01.254Z,10.58
2023-04-11T23:19:32.691Z,10.56
2023-04-11T23:22:02.565Z,10.53
2023-04-11T23:24:31.837Z,10.51
2023-04-11T23:27:00.062Z,10.49
2023-04-11T23:29:29.282Z,10.45
2023-04-11T23:31:57.512Z,10.41
2023-04-11T23:34:30.760Z,10.39
2023-04-11T23:36:59.235Z,10.36
2023-04-11T23:39:28.279Z,10.34
2023-04-11T23:41:57.277Z,10.31
2023-04-11T23:44:25.839Z,10.28
2023-04-11T23:46:54.154Z,10.28
2023-04-11T23:49:22.385Z,10.27
2023-04-11T23:51:50.750Z,10.28
2023-04-11T23:54:19.654Z,10.27
2023-04-11T23:56:48.056Z,10.28
2023-04-11T23:59:16.368Z,10.29
